sensor_id;sensor_type;location;lat;lon;timestamp;pressure;altitude;pressure_sealevel;temperature;humidity
26865;BME280;40618;51.166;10.322;2023-11-19T00:01:10;97031.41;;;3.43;95.19
26865;BME280;40618;51.166;10.322;2023-11-19T00:03:35;97022.00;;;3.44;94.70
26865;BME280;40618;51.166;10.322;2023-11-19T00:06:01;97039.09;;;3.45;94.81
26865;BME280;40618;51.166;10.322;2023-11-19T00:08:26;97032.22;;;3.47;95.44
26865;BME280;40618;51.166;10.322;2023-11-19T00:10:52;97020.28;;;3.47;94.94
26865;BME280;40618;51.166;10.322;2023-11-19T00:13:18;97027.94;;;3.50;95.09
26865;BME280;40618;51.166;10.322;2023-11-19T00:15:43;97011.72;;;3.51;94.88
26865;BME280;40618;51.166;10.322;2023-11-19T00:18:10;97018.50;;;3.52;95.40
26865;BME280;40618;51.166;10.322;2023-11-19T00:20:36;97010.00;;;3.52;94.89
26865;BME280;40618;51.166;10.322;2023-11-19T00:23:01;97002.31;;;3.52;95.38
26865;BME280;40618;51.166;10.322;2023-11-19T00:25:27;97000.59;;;3.52;95.41
26865;BME280;40618;51.166;10.322;2023-11-19T00:27:53;97009.97;;;3.53;95.55
26865;BME280;40618;51.166;10.322;2023-11-19T00:30:19;96998.03;;;3.55;95.59
26865;BME280;40618;51.166;10.322;2023-11-19T00:32:44;97005.69;;;3.57;95.18
26865;BME280;40618;51.166;10.322;2023-11-19T00:35:11;97005.66;;;3.59;95.09
26865;BME280;40618;51.166;10.322;2023-11-19T00:37:39;96992.84;;;3.60;95.33
26865;BME280;40618;51.166;10.322;2023-11-19T00:40:05;96992.03;;;3.60;95.65
26865;BME280;40618;51.166;10.322;2023-11-19T00:42:31;96992.00;;;3.61;95.47
26865;BME280;40618;51.166;10.322;2023-11-19T00:44:57;96989.41;;;3.63;95.71
26865;BME280;40618;51.166;10.322;2023-11-19T00:47:23;96974.88;;;3.65;95.39
26865;BME280;40618;51.166;10.322;2023-11-19T00:49:49;96974.88;;;3.65;95.38
26865;BME280;40618;51.166;10.322;2023-11-19T00:52:16;96983.41;;;3.65;95.16
26865;BME280;40618;51.166;10.322;2023-11-19T00:54:42;96970.63;;;3.64;95.23
26865;BME280;40618;51.166;10.322;2023-11-19T00:57:08;96966.34;;;3.64;95.58
26865;BME280;40618;51.166;10.322;2023-11-19T00:59:34;96965.50;;;3.65;95.97
26865;BME280;40618;51.166;10.322;2023-11-19T01:01:59;96970.63;;;3.65;95.49
26865;BME280;40618;51.166;10.322;2023-11-19T01:04:33;96949.28;;;3.66;95.75
26865;BME280;40618;51.166;10.322;2023-11-19T01:07:02;96941.56;;;3.68;95.79
26865;BME280;40618;51.166;10.322;2023-11-19T01:09:29;96944.94;;;3.70;95.60
26865;BME280;40618;51.166;10.322;2023-11-19T01:11:58;96944.09;;;3.71;95.92
26865;BME280;40618;51.166;10.322;2023-11-19T01:14:25;96936.41;;;3.72;95.88
26865;BME280;40618;51.166;10.322;2023-11-19T01:16:51;96938.94;;;3.74;96.43
26865;BME280;40618;51.166;10.322;2023-11-19T01:19:19;96943.19;;;3.75;96.03
26865;BME280;40618;51.166;10.322;2023-11-19T01:21:44;96944.03;;;3.79;96.06
26865;BME280;40618;51.166;10.322;2023-11-19T01:24:10;96934.56;;;3.82;95.87
26865;BME280;40618;51.166;10.322;2023-11-19T01:26:38;96926.88;;;3.82;96.25
26865;BME280;40618;51.166;10.322;2023-11-19T01:29:04;96926.88;;;3.82;95.70
26865;BME280;40618;51.166;10.322;2023-11-19T01:31:30;96924.28;;;3.87;95.85
26865;BME280;40618;51.166;10.322;2023-11-19T01:33:59;96917.44;;;3.87;95.89
26865;BME280;40618;51.166;10.322;2023-11-19T01:36:24;96911.47;;;3.87;96.24
26865;BME280;40618;51.166;10.322;2023-11-19T01:38:50;96907.16;;;3.89;95.95
26865;BME280;40618;51.166;10.322;2023-11-19T01:41:15;96890.91;;;3.92;96.06
26865;BME280;40618;51.166;10.322;2023-11-19T01:43:41;96878.03;;;3.96;96.31
26865;BME280;40618;51.166;10.322;2023-11-19T01:46:06;96876.31;;;3.98;96.26
26865;BME280;40618;51.166;10.322;2023-11-19T01:48:35;96881.44;;;3.98;96.28
26865;BME280;40618;51.166;10.322;2023-11-19T01:51:06;96873.75;;;4.00;96.22
26865;BME280;40618;51.166;10.322;2023-11-19T01:53:34;96868.56;;;4.03;95.98
26865;BME280;40618;51.166;10.322;2023-11-19T01:56:04;96870.25;;;4.05;96.49
26865;BME280;40618;51.166;10.322;2023-11-19T01:58:35;96871.09;;;4.07;96.27
26865;BME280;40618;51.166;10.322;2023-11-19T02:01:01;96883.88;;;4.09;96.08
26865;BME280;40618;51.166;10.322;2023-11-19T02:03:31;96857.34;;;4.13;96.21
26865;BME280;40618;51.166;10.322;2023-11-19T02:05:58;96850.44;;;4.17;96.27
26865;BME280;40618;51.166;10.322;2023-11-19T02:08:27;96828.22;;;4.19;96.39
26865;BME280;40618;51.166;10.322;2023-11-19T02:10:54;96828.19;;;4.20;96.56
26865;BME280;40618;51.166;10.322;2023-11-19T02:13:24;96834.13;;;4.21;96.59
26865;BME280;40618;51.166;10.322;2023-11-19T02:15:51;96833.28;;;4.22;96.74
26865;BME280;40618;51.166;10.322;2023-11-19T02:20:47;96834.91;;;4.29;96.61
26865;BME280;40618;51.166;10.322;2023-11-19T02:23:16;96833.16;;;4.31;96.87
26865;BME280;40618;51.166;10.322;2023-11-19T02:25:43;96833.97;;;4.35;96.38
26865;BME280;40618;51.166;10.322;2023-11-19T02:28:16;96845.03;;;4.35;96.48
26865;BME280;40618;51.166;10.322;2023-11-19T02:30:41;96836.47;;;4.38;96.81
26865;BME280;40618;51.166;10.322;2023-11-19T02:33:07;96841.56;;;4.39;96.64
26865;BME280;40618;51.166;10.322;2023-11-19T02:35:33;96844.13;;;4.39;96.70
26865;BME280;40618;51.166;10.322;2023-11-19T02:37:59;96852.66;;;4.42;96.70
26865;BME280;40618;51.166;10.322;2023-11-19T02:40:32;96851.75;;;4.46;96.85
26865;BME280;40618;51.166;10.322;2023-11-19T02:42:57;96845.69;;;4.50;96.80
26865;BME280;40618;51.166;10.322;2023-11-19T02:45:24;96849.91;;;4.52;96.89
26865;BME280;40618;51.166;10.322;2023-11-19T02:47:53;96830.22;;;4.54;96.72
26865;BME280;40618;51.166;10.322;2023-11-19T02:50:20;96818.19;;;4.60;97.00
26865;BME280;40618;51.166;10.322;2023-11-19T02:52:54;96815.59;;;4.61;96.99
26865;BME280;40618;51.166;10.322;2023-11-19T02:55:24;96821.59;;;4.60;96.94
26865;BME280;40618;51.166;10.322;2023-11-19T02:57:51;96830.97;;;4.61;97.21
26865;BME280;40618;51.166;10.322;2023-11-19T03:00:19;96815.63;;;4.60;96.99
26865;BME280;40618;51.166;10.322;2023-11-19T03:02:50;96814.72;;;4.61;97.03
26865;BME280;40618;51.166;10.322;2023-11-19T03:05:39;96795.88;;;4.63;97.15
26865;BME280;40618;51.166;10.322;2023-11-19T03:08:05;96808.69;;;4.63;96.92
26865;BME280;40618;51.166;10.322;2023-11-19T03:10:32;96796.78;;;4.62;96.92
26865;BME280;40618;51.166;10.322;2023-11-19T03:12:59;96798.44;;;4.63;97.01
26865;BME280;40618;51.166;10.322;2023-11-19T03:15:27;96795.84;;;4.66;97.47
26865;BME280;40618;51.166;10.322;2023-11-19T03:17:53;96786.41;;;4.68;97.22
26865;BME280;40618;51.166;10.322;2023-11-19T03:20:19;96779.53;;;4.70;96.75
26865;BME280;40618;51.166;10.322;2023-11-19T03:22:46;96781.22;;;4.71;97.43
26865;BME280;40618;51.166;10.322;2023-11-19T03:25:12;96778.69;;;4.70;96.96
26865;BME280;40618;51.166;10.322;2023-11-19T03:27:38;96781.25;;;4.70;97.10
26865;BME280;40618;51.166;10.322;2023-11-19T03:30:08;96774.44;;;4.69;97.24
26865;BME280;40618;51.166;10.322;2023-11-19T03:32:37;96765.84;;;4.70;97.29
26865;BME280;40618;51.166;10.322;2023-11-19T03:35:04;96766.66;;;4.73;97.44
26865;BME280;40618;51.166;10.322;2023-11-19T03:37:32;96760.66;;;4.74;97.58
26865;BME280;40618;51.166;10.322;2023-11-19T03:39:58;96765.75;;;4.76;97.53
26865;BME280;40618;51.166;10.322;2023-11-19T03:42:31;96758.03;;;4.78;97.38
26865;BME280;40618;51.166;10.322;2023-11-19T03:44:56;96761.44;;;4.78;97.45
26865;BME280;40618;51.166;10.322;2023-11-19T03:47:23;96761.38;;;4.83;97.41
26865;BME280;40618;51.166;10.322;2023-11-19T03:49:49;96761.38;;;4.83;97.56
26865;BME280;40618;51.166;10.322;2023-11-19T03:52:16;96769.88;;;4.83;97.27
26865;BME280;40618;51.166;10.322;2023-11-19T03:54:42;96764.69;;;4.86;97.60
26865;BME280;40618;51.166;10.322;2023-11-19T03:57:07;96772.41;;;4.86;97.37
26865;BME280;40618;51.166;10.322;2023-11-19T03:59:35;96768.13;;;4.87;97.54
26865;BME280;40618;51.166;10.322;2023-11-19T04:02:01;96764.66;;;4.88;97.42
26865;BME280;40618;51.166;10.322;2023-11-19T04:04:28;96764.63;;;4.91;97.27
26865;BME280;40618;51.166;10.322;2023-11-19T04:06:55;96750.03;;;4.93;97.81
26865;BME280;40618;51.166;10.322;2023-11-19T04:09:21;96750.00;;;4.95;97.73
26865;BME280;40618;51.166;10.322;2023-11-19T04:11:47;96753.41;;;4.97;97.58
26865;BME280;40618;51.166;10.322;2023-11-19T04:14:13;96752.53;;;4.98;97.75
26865;BME280;40618;51.166;10.322;2023-11-19T04:16:40;96749.94;;;4.99;97.28
26865;BME280;40618;51.166;10.322;2023-11-19T04:19:05;96734.53;;;4.99;97.83
26865;BME280;40618;51.166;10.322;2023-11-19T04:21:32;96740.50;;;5.00;97.79
26865;BME280;40618;51.166;10.322;2023-11-19T04:23:58;96738.84;;;4.97;97.62
26865;BME280;40618;51.166;10.322;2023-11-19T04:26:24;96725.16;;;4.98;97.56
26865;BME280;40618;51.166;10.322;2023-11-19T04:28:49;96737.97;;;4.98;97.60
26865;BME280;40618;51.166;10.322;2023-11-19T04:31:16;96732.81;;;5.00;97.84
26865;BME280;40618;51.166;10.322;2023-11-19T04:33:42;96721.69;;;5.01;98.06
26865;BME280;40618;51.166;10.322;2023-11-19T04:36:09;96713.94;;;5.02;97.71
26865;BME280;40618;51.166;10.322;2023-11-19T04:38:35;96712.19;;;5.06;98.17
26865;BME280;40618;51.166;10.322;2023-11-19T04:41:01;96704.41;;;5.09;97.98
26865;BME280;40618;51.166;10.322;2023-11-19T04:43:26;96688.09;;;5.12;97.89
26865;BME280;40618;51.166;10.322;2023-11-19T04:45:52;96682.91;;;5.15;97.73
26865;BME280;40618;51.166;10.322;2023-11-19T04:48:17;96676.03;;;5.17;98.09
26865;BME280;40618;51.166;10.322;2023-11-19T04:50:43;96676.91;;;5.16;98.00
26865;BME280;40618;51.166;10.322;2023-11-19T04:53:09;96676.03;;;5.17;98.39
26865;BME280;40618;51.166;10.322;2023-11-19T04:55:35;96687.94;;;5.19;98.25
26865;BME280;40618;51.166;10.322;2023-11-19T04:58:00;96687.97;;;5.18;98.13
26865;BME280;40618;51.166;10.322;2023-11-19T05:00:26;96690.50;;;5.19;97.91
26865;BME280;40618;51.166;10.322;2023-11-19T05:02:51;96694.72;;;5.22;97.43
26865;BME280;40618;51.166;10.322;2023-11-19T05:05:17;96688.75;;;5.21;98.45
26865;BME280;40618;51.166;10.322;2023-11-19T05:07:43;96697.25;;;5.23;98.01
26865;BME280;40618;51.166;10.322;2023-11-19T05:10:09;96700.72;;;5.22;98.01
26865;BME280;40618;51.166;10.322;2023-11-19T05:12:35;96689.59;;;5.22;98.21
26865;BME280;40618;51.166;10.322;2023-11-19T05:15:00;96703.25;;;5.24;98.21
26865;BME280;40618;51.166;10.322;2023-11-19T05:17:26;96702.31;;;5.28;98.35
26865;BME280;40618;51.166;10.322;2023-11-19T05:19:52;96692.75;;;5.35;98.36
26865;BME280;40618;51.166;10.322;2023-11-19T05:22:17;96697.84;;;5.36;98.35
26865;BME280;40618;51.166;10.322;2023-11-19T05:24:43;96695.19;;;5.41;98.43
26865;BME280;40618;51.166;10.322;2023-11-19T05:27:09;96701.91;;;5.47;98.40
26865;BME280;40618;51.166;10.322;2023-11-19T05:29:36;96695.84;;;5.49;98.74
26865;BME280;40618;51.166;10.322;2023-11-19T05:32:04;96691.53;;;5.51;98.61
26865;BME280;40618;51.166;10.322;2023-11-19T05:34:30;96682.06;;;5.53;98.39
26865;BME280;40618;51.166;10.322;2023-11-19T05:36:56;96683.66;;;5.59;98.77
26865;BME280;40618;51.166;10.322;2023-11-19T05:39:22;96686.91;;;5.66;98.92
26865;BME280;40618;51.166;10.322;2023-11-19T05:41:49;96678.25;;;5.71;98.88
26865;BME280;40618;51.166;10.322;2023-11-19T05:44:15;96676.53;;;5.72;98.90
26865;BME280;40618;51.166;10.322;2023-11-19T05:46:40;96677.31;;;5.74;98.77
26865;BME280;40618;51.166;10.322;2023-11-19T05:49:08;96680.72;;;5.76;98.72
26865;BME280;40618;51.166;10.322;2023-11-19T05:51:38;96677.16;;;5.82;99.17
26865;BME280;40618;51.166;10.322;2023-11-19T05:54:06;96671.09;;;5.84;99.03
26865;BME280;40618;51.166;10.322;2023-11-19T05:56:35;96668.47;;;5.86;99.14
26865;BME280;40618;51.166;10.322;2023-11-19T05:59:01;96664.16;;;5.88;98.36
26865;BME280;40618;51.166;10.322;2023-11-19T06:01:29;96661.50;;;5.91;98.61
26865;BME280;40618;51.166;10.322;2023-11-19T06:03:55;96658.81;;;5.96;99.09
26865;BME280;40618;51.166;10.322;2023-11-19T06:06:20;96676.59;;;6.06;99.36
26865;BME280;40618;51.166;10.322;2023-11-19T06:08:46;96664.59;;;6.07;99.41
26865;BME280;40618;51.166;10.322;2023-11-19T06:11:12;96665.25;;;6.15;99.55
26865;BME280;40618;51.166;10.322;2023-11-19T06:13:43;96671.09;;;6.20;99.15
26865;BME280;40618;51.166;10.322;2023-11-19T06:16:09;96672.75;;;6.23;99.51
26865;BME280;40618;51.166;10.322;2023-11-19T06:18:36;96675.31;;;6.23;99.21
26865;BME280;40618;51.166;10.322;2023-11-19T06:21:02;96665.03;;;6.23;99.24
26865;BME280;40618;51.166;10.322;2023-11-19T06:23:27;96670.09;;;6.26;99.67
26865;BME280;40618;51.166;10.322;2023-11-19T06:25:53;96671.78;;;6.27;99.23
26865;BME280;40618;51.166;10.322;2023-11-19T06:28:18;96673.44;;;6.30;99.13
26865;BME280;40618;51.166;10.322;2023-11-19T06:30:44;96668.09;;;6.37;99.48
26865;BME280;40618;51.166;10.322;2023-11-19T06:33:14;96674.94;;;6.38;99.24
26865;BME280;40618;51.166;10.322;2023-11-19T06:35:39;96673.06;;;6.43;99.17
26865;BME280;40618;51.166;10.322;2023-11-19T06:38:05;96679.91;;;6.44;99.04
26865;BME280;40618;51.166;10.322;2023-11-19T06:40:32;96679.88;;;6.46;99.43
26865;BME280;40618;51.166;10.322;2023-11-19T06:42:58;96680.56;;;6.53;99.86
26865;BME280;40618;51.166;10.322;2023-11-19T06:45:25;96685.59;;;6.56;99.61
26865;BME280;40618;51.166;10.322;2023-11-19T06:47:50;96675.31;;;6.56;99.59
26865;BME280;40618;51.166;10.322;2023-11-19T06:50:16;96682.06;;;6.60;99.24
26865;BME280;40618;51.166;10.322;2023-11-19T06:52:41;96679.50;;;6.60;99.18
26865;BME280;40618;51.166;10.322;2023-11-19T06:55:08;96669.16;;;6.63;99.49
26865;BME280;40618;51.166;10.322;2023-11-19T06:57:33;96672.47;;;6.67;99.80
26865;BME280;40618;51.166;10.322;2023-11-19T06:59:59;96676.69;;;6.69;99.35
26865;BME280;40618;51.166;10.322;2023-11-19T07:02:25;96675.81;;;6.70;99.73
26865;BME280;40618;51.166;10.322;2023-11-19T07:04:51;96670.56;;;6.73;99.48
26865;BME280;40618;51.166;10.322;2023-11-19T07:07:16;96683.25;;;6.81;99.88
26865;BME280;40618;51.166;10.322;2023-11-19T07:09:42;96684.78;;;6.87;100.00
26865;BME280;40618;51.166;10.322;2023-11-19T07:12:08;96669.31;;;6.88;99.60
26865;BME280;40618;51.166;10.322;2023-11-19T07:14:34;96673.63;;;6.88;99.68
26865;BME280;40618;51.166;10.322;2023-11-19T07:17:00;96677.78;;;6.92;100.00
26865;BME280;40618;51.166;10.322;2023-11-19T07:19:26;96679.34;;;6.98;100.00
26865;BME280;40618;51.166;10.322;2023-11-19T07:21:52;96679.09;;;7.07;100.00
26865;BME280;40618;51.166;10.322;2023-11-19T07:24:20;96688.47;;;7.09;100.00
26865;BME280;40618;51.166;10.322;2023-11-19T07:26:47;96697.91;;;7.09;100.00
26865;BME280;40618;51.166;10.322;2023-11-19T07:29:13;96693.53;;;7.13;100.00
26865;BME280;40618;51.166;10.322;2023-11-19T07:31:42;96707.16;;;7.15;100.00
26865;BME280;40618;51.166;10.322;2023-11-19T07:34:09;96709.53;;;7.22;100.00
26865;BME280;40618;51.166;10.322;2023-11-19T07:36:36;96712.88;;;7.26;100.00
26865;BME280;40618;51.166;10.322;2023-11-19T07:39:03;96705.06;;;7.29;100.00
26865;BME280;40618;51.166;10.322;2023-11-19T07:41:30;96705.88;;;7.29;99.91
26865;BME280;40618;51.166;10.322;2023-11-19T07:43:56;96703.94;;;7.38;100.00
26865;BME280;40618;51.166;10.322;2023-11-19T07:46:22;96707.38;;;7.38;100.00
26865;BME280;40618;51.166;10.322;2023-11-19T07:48:47;96701.25;;;7.42;100.00
26865;BME280;40618;51.166;10.322;2023-11-19T07:51:14;96697.69;;;7.47;100.00
26865;BME280;40618;51.166;10.322;2023-11-19T07:53:40;96685.63;;;7.47;100.00
26865;BME280;40618;51.166;10.322;2023-11-19T07:56:07;96670.09;;;7.50;99.70
26865;BME280;40618;51.166;10.322;2023-11-19T07:58:33;96670.09;;;7.50;100.00
26865;BME280;40618;51.166;10.322;2023-11-19T08:00:59;96681.09;;;7.55;100.00
26865;BME280;40618;51.166;10.322;2023-11-19T08:03:24;96675.00;;;7.58;100.00
26865;BME280;40618;51.166;10.322;2023-11-19T08:05:50;96676.59;;;7.62;100.00
26865;BME280;40618;51.166;10.322;2023-11-19T08:08:16;96673.94;;;7.65;100.00
26865;BME280;40618;51.166;10.322;2023-11-19T08:10:43;96670.41;;;7.68;100.00
26865;BME280;40618;51.166;10.322;2023-11-19T08:13:10;96665.25;;;7.68;100.00
26865;BME280;40618;51.166;10.322;2023-11-19T08:15:36;96671.13;;;7.73;100.00
26865;BME280;40618;51.166;10.322;2023-11-19T08:18:02;96672.66;;;7.78;100.00
26865;BME280;40618;51.166;10.322;2023-11-19T08:20:27;96676.97;;;7.78;100.00
26865;BME280;40618;51.166;10.322;2023-11-19T08:22:53;96676.06;;;7.79;100.00
26865;BME280;40618;51.166;10.322;2023-11-19T08:25:19;96682.91;;;7.80;100.00
26865;BME280;40618;51.166;10.322;2023-11-19T08:27:44;96675.06;;;7.85;100.00
26865;BME280;40618;51.166;10.322;2023-11-19T08:30:11;96675.84;;;7.87;100.00
26865;BME280;40618;51.166;10.322;2023-11-19T08:32:37;96670.56;;;7.90;100.00
26865;BME280;40618;51.166;10.322;2023-11-19T08:35:03;96679.06;;;7.93;100.00
26865;BME280;40618;51.166;10.322;2023-11-19T08:37:28;96686.63;;;8.00;100.00
26865;BME280;40618;51.166;10.322;2023-11-19T08:39:54;96670.97;;;8.04;99.99
26865;BME280;40618;51.166;10.322;2023-11-19T08:42:20;96676.03;;;8.07;100.00
26865;BME280;40618;51.166;10.322;2023-11-19T08:44:50;96680.31;;;8.08;100.00
26865;BME280;40618;51.166;10.322;2023-11-19T08:47:19;96687.00;;;8.14;100.00
26865;BME280;40618;51.166;10.322;2023-11-19T08:49:45;96687.75;;;8.18;100.00
26865;BME280;40618;51.166;10.322;2023-11-19T08:52:11;96688.63;;;8.17;100.00
26865;BME280;40618;51.166;10.322;2023-11-19T08:54:37;96698.94;;;8.17;100.00
26865;BME280;40618;51.166;10.322;2023-11-19T08:57:03;96703.00;;;8.24;100.00
26865;BME280;40618;51.166;10.322;2023-11-19T08:59:30;96705.28;;;8.33;100.00
26865;BME280;40618;51.166;10.322;2023-11-19T09:01:55;96702.59;;;8.36;100.00
26865;BME280;40618;51.166;10.322;2023-11-19T09:04:21;96717.25;;;8.36;99.92
26865;BME280;40618;51.166;10.322;2023-11-19T09:06:49;96712.84;;;8.39;99.79
26865;BME280;40618;51.166;10.322;2023-11-19T09:09:16;96709.50;;;8.36;100.00
26865;BME280;40618;51.166;10.322;2023-11-19T09:11:41;96707.81;;;8.35;100.00
26865;BME280;40618;51.166;10.322;2023-11-19T09:14:07;96715.31;;;8.42;99.94
26865;BME280;40618;51.166;10.322;2023-11-19T09:16:33;96736.69;;;8.46;99.97
26865;BME280;40618;51.166;10.322;2023-11-19T09:18:59;96735.03;;;8.45;99.55
26865;BME280;40618;51.166;10.322;2023-11-19T09:21:26;96742.72;;;8.46;99.99
26865;BME280;40618;51.166;10.322;2023-11-19T09:23:51;96742.72;;;8.46;99.33
26865;BME280;40618;51.166;10.322;2023-11-19T09:26:19;96748.84;;;8.42;99.17
26865;BME280;40618;51.166;10.322;2023-11-19T09:28:44;96735.25;;;8.37;98.92
26865;BME280;40618;51.166;10.322;2023-11-19T09:31:14;96737.03;;;8.35;99.61
26865;BME280;40618;51.166;10.322;2023-11-19T09:33:40;96744.88;;;8.32;99.24
26865;BME280;40618;51.166;10.322;2023-11-19T09:36:06;96729.31;;;8.35;99.27
26865;BME280;40618;51.166;10.322;2023-11-19T09:38:32;96737.06;;;8.34;99.30
26865;BME280;40618;51.166;10.322;2023-11-19T09:41:00;96743.97;;;8.33;99.35
26865;BME280;40618;51.166;10.322;2023-11-19T09:43:27;96750.72;;;8.37;98.60
26865;BME280;40618;51.166;10.322;2023-11-19T09:45:56;96753.41;;;8.34;99.17
26865;BME280;40618;51.166;10.322;2023-11-19T09:48:24;96752.66;;;8.30;98.70
26865;BME280;40618;51.166;10.322;2023-11-19T09:50:51;96749.31;;;8.28;98.95
26865;BME280;40618;51.166;10.322;2023-11-19T09:53:17;96751.94;;;8.27;98.85
26865;BME280;40618;51.166;10.322;2023-11-19T09:55:45;96762.13;;;8.30;98.35
26865;BME280;40618;51.166;10.322;2023-11-19T09:58:12;96760.34;;;8.32;98.86
26865;BME280;40618;51.166;10.322;2023-11-19T10:00:40;96757.63;;;8.37;98.62
26865;BME280;40618;51.166;10.322;2023-11-19T10:03:07;96774.59;;;8.44;98.69
26865;BME280;40618;51.166;10.322;2023-11-19T10:05:36;96768.59;;;8.43;98.39
26865;BME280;40618;51.166;10.322;2023-11-19T10:08:03;96790.19;;;8.41;97.72
26865;BME280;40618;51.166;10.322;2023-11-19T10:10:30;96779.81;;;8.42;97.77
26865;BME280;40618;51.166;10.322;2023-11-19T10:12:55;96770.41;;;8.40;97.74
26865;BME280;40618;51.166;10.322;2023-11-19T10:15:24;96792.00;;;8.37;97.00
26865;BME280;40618;51.166;10.322;2023-11-19T10:17:52;96767.72;;;8.43;97.74
26865;BME280;40618;51.166;10.322;2023-11-19T10:20:20;96790.03;;;8.45;97.42
26865;BME280;40618;51.166;10.322;2023-11-19T10:22:46;96782.38;;;8.42;97.37
26865;BME280;40618;51.166;10.322;2023-11-19T10:25:28;96770.47;;;8.38;97.58
26865;BME280;40618;51.166;10.322;2023-11-19T10:27:56;96766.16;;;8.39;97.58
26865;BME280;40618;51.166;10.322;2023-11-19T10:30:27;96763.72;;;8.34;97.16
26865;BME280;40618;51.166;10.322;2023-11-19T10:33:07;96762.56;;;8.43;97.18
26865;BME280;40618;51.166;10.322;2023-11-19T10:35:36;96765.06;;;8.48;97.41
26865;BME280;40618;51.166;10.322;2023-11-19T10:38:15;96741.72;;;8.51;97.12
26865;BME280;40618;51.166;10.322;2023-11-19T10:40:41;96756.22;;;8.55;96.87
26865;BME280;40618;51.166;10.322;2023-11-19T10:43:08;96742.19;;;8.62;97.02
26865;BME280;40618;51.166;10.322;2023-11-19T10:45:35;96738.63;;;8.66;96.81
26865;BME280;40618;51.166;10.322;2023-11-19T10:48:02;96734.16;;;8.71;96.12
26865;BME280;40618;51.166;10.322;2023-11-19T10:50:39;96743.59;;;8.72;96.44
26865;BME280;40618;51.166;10.322;2023-11-19T10:53:08;96740.91;;;8.75;95.98
26865;BME280;40618;51.166;10.322;2023-11-19T10:55:38;96740.00;;;8.76;96.31
26865;BME280;40618;51.166;10.322;2023-11-19T10:58:08;96735.78;;;8.74;96.41
26865;BME280;40618;51.166;10.322;2023-11-19T11:00:56;96736.63;;;8.74;96.07
26865;BME280;40618;51.166;10.322;2023-11-19T11:03:30;96727.19;;;8.73;96.64
26865;BME280;40618;51.166;10.322;2023-11-19T11:06:05;96732.31;;;8.75;96.63
26865;BME280;40618;51.166;10.322;2023-11-19T11:08:32;96723.56;;;8.79;95.88
26865;BME280;40618;51.166;10.322;2023-11-19T11:11:03;96721.81;;;8.79;95.99
26865;BME280;40618;51.166;10.322;2023-11-19T11:13:30;96717.41;;;8.83;95.78
26865;BME280;40618;51.166;10.322;2023-11-19T11:15:57;96706.78;;;8.91;95.77
26865;BME280;40618;51.166;10.322;2023-11-19T11:18:24;96723.81;;;8.96;95.86
26865;BME280;40618;51.166;10.322;2023-11-19T11:20:54;96717.69;;;8.99;96.02
26865;BME280;40618;51.166;10.322;2023-11-19T11:23:42;96720.97;;;9.04;95.48
26865;BME280;40618;51.166;10.322;2023-11-19T11:26:50;96720.06;;;9.05;95.46
26865;BME280;40618;51.166;10.322;2023-11-19T11:38:06;96713.91;;;9.09;94.95
26865;BME280;40618;51.166;10.322;2023-11-19T11:40:33;96732.81;;;9.10;94.87
26865;BME280;40618;51.166;10.322;2023-11-19T11:42:59;96742.38;;;9.08;94.58
26865;BME280;40618;51.166;10.322;2023-11-19T11:45:40;96738.19;;;9.04;94.74
26865;BME280;40618;51.166;10.322;2023-11-19T11:48:15;96740.84;;;9.02;94.41
26865;BME280;40618;51.166;10.322;2023-11-19T11:50:53;96737.34;;;9.03;94.18
26865;BME280;40618;51.166;10.322;2023-11-19T11:53:21;96752.00;;;9.03;94.66
26865;BME280;40618;51.166;10.322;2023-11-19T11:58:25;96727.25;;;9.21;94.17
26865;BME280;40618;51.166;10.322;2023-11-19T12:00:57;96724.56;;;9.24;94.76
26865;BME280;40618;51.166;10.322;2023-11-19T12:03:27;96725.34;;;9.26;94.48
26865;BME280;40618;51.166;10.322;2023-11-19T12:05:55;96736.63;;;9.23;93.83
26865;BME280;40618;51.166;10.322;2023-11-19T12:08:28;96735.81;;;9.23;93.85
26865;BME280;40618;51.166;10.322;2023-11-19T12:10:56;96728.06;;;9.23;94.50
26865;BME280;40618;51.166;10.322;2023-11-19T12:13:23;96719.56;;;9.19;94.37
26865;BME280;40618;51.166;10.322;2023-11-19T12:18:23;96729.00;;;9.20;93.64
26865;BME280;40618;51.166;10.322;2023-11-19T12:20:51;96731.59;;;9.20;93.82
26865;BME280;40618;51.166;10.322;2023-11-19T12:23:17;96727.31;;;9.19;93.58
26865;BME280;40618;51.166;10.322;2023-11-19T12:25:43;96735.84;;;9.21;93.75
26865;BME280;40618;51.166;10.322;2023-11-19T12:28:14;96720.31;;;9.23;93.57
26865;BME280;40618;51.166;10.322;2023-11-19T12:30:42;96720.31;;;9.23;93.67
26865;BME280;40618;51.166;10.322;2023-11-19T12:33:10;96709.16;;;9.21;93.65
26865;BME280;40618;51.166;10.322;2023-11-19T12:35:43;96716.16;;;9.19;94.04
26865;BME280;40618;51.166;10.322;2023-11-19T12:38:37;96729.97;;;9.18;93.45
26865;BME280;40618;51.166;10.322;2023-11-19T12:41:04;96722.91;;;9.21;93.73
26865;BME280;40618;51.166;10.322;2023-11-19T12:43:29;96707.34;;;9.24;93.87
26865;BME280;40618;51.166;10.322;2023-11-19T12:45:55;96716.66;;;9.28;94.20
26865;BME280;40618;51.166;10.322;2023-11-19T12:48:21;96706.19;;;9.31;93.91
26865;BME280;40618;51.166;10.322;2023-11-19T12:50:57;96707.81;;;9.34;93.96
26865;BME280;40618;51.166;10.322;2023-11-19T12:53:25;96719.72;;;9.38;93.87
26865;BME280;40618;51.166;10.322;2023-11-19T12:55:52;96706.69;;;9.41;93.21
26865;BME280;40618;51.166;10.322;2023-11-19T12:58:31;96705.00;;;9.40;93.45
26865;BME280;40618;51.166;10.322;2023-11-19T13:03:35;96697.63;;;9.31;92.83
26865;BME280;40618;51.166;10.322;2023-11-19T13:06:08;96710.59;;;9.29;92.44
26865;BME280;40618;51.166;10.322;2023-11-19T13:08:44;96708.03;;;9.28;92.83
26865;BME280;40618;51.166;10.322;2023-11-19T13:11:12;96706.25;;;9.30;92.73
26865;BME280;40618;51.166;10.322;2023-11-19T13:13:57;96692.50;;;9.29;92.56
26865;BME280;40618;51.166;10.322;2023-11-19T13:16:25;96675.31;;;9.28;92.38
26865;BME280;40618;51.166;10.322;2023-11-19T13:18:51;96694.22;;;9.29;92.37
26865;BME280;40618;51.166;10.322;2023-11-19T13:21:17;96697.69;;;9.29;92.55